sensor_id;sensor_type;location;lat;lon;timestamp;P1;durP1;ratioP1;P2;durP2;ratioP2
1471;SDS011;963;42.644;23.336;2023-05-21T00:00:08;14.10;;;11.37;;
1471;SDS011;963;42.644;23.336;2023-05-21T00:02:35;19.13;;;10.33;;
1471;SDS011;963;42.644;23.336;2023-05-21T00:05:00;18.90;;;12.23;;
1471;SDS011;963;42.644;23.336;2023-05-21T00:07:26;14.43;;;9.60;;
1471;SDS011;963;42.644;23.336;2023-05-21T00:09:51;15.60;;;10.80;;
1471;SDS011;963;42.644;23.336;2023-05-21T00:12:17;13.67;;;11.10;;
1471;SDS011;963;42.644;23.336;2023-05-21T00:14:42;12.47;;;10.20;;
1471;SDS011;963;42.644;23.336;2023-05-21T00:17:08;13.37;;;10.17;;
1471;SDS011;963;42.644;23.336;2023-05-21T00:19:33;19.00;;;11.00;;
1471;SDS011;963;42.644;23.336;2023-05-21T00:21:58;11.77;;;10.30;;
1471;SDS011;963;42.644;23.336;2023-05-21T00:24:27;12.93;;;9.70;;
1471;SDS011;963;42.644;23.336;2023-05-21T00:26:53;14.37;;;9.30;;
1471;SDS011;963;42.644;23.336;2023-05-21T00:29:18;20.37;;;10.67;;
1471;SDS011;963;42.644;23.336;2023-05-21T00:31:45;15.50;;;8.77;;
1471;SDS011;963;42.644;23.336;2023-05-21T00:34:11;11.20;;;9.53;;
1471;SDS011;963;42.644;23.336;2023-05-21T00:36:37;14.10;;;9.33;;
1471;SDS011;963;42.644;23.336;2023-05-21T00:39:04;11.40;;;8.67;;
1471;SDS011;963;42.644;23.336;2023-05-21T00:41:30;13.97;;;9.97;;
1471;SDS011;963;42.644;23.336;2023-05-21T00:43:55;13.87;;;10.40;;
1471;SDS011;963;42.644;23.336;2023-05-21T00:46:21;12.53;;;9.93;;
1471;SDS011;963;42.644;23.336;2023-05-21T00:48:46;14.10;;;11.57;;
1471;SDS011;963;42.644;23.336;2023-05-21T00:51:14;14.17;;;10.63;;
1471;SDS011;963;42.644;23.336;2023-05-21T00:53:42;11.53;;;9.60;;
1471;SDS011;963;42.644;23.336;2023-05-21T00:56:08;13.00;;;9.93;;
1471;SDS011;963;42.644;23.336;2023-05-21T00:58:34;10.97;;;9.80;;
1471;SDS011;963;42.644;23.336;2023-05-21T01:01:01;13.23;;;10.70;;
1471;SDS011;963;42.644;23.336;2023-05-21T01:03:31;11.63;;;9.70;;
1471;SDS011;963;42.644;23.336;2023-05-21T01:06:06;13.10;;;9.63;;
1471;SDS011;963;42.644;23.336;2023-05-21T01:08:33;12.50;;;10.77;;
1471;SDS011;963;42.644;23.336;2023-05-21T01:10:59;12.23;;;10.07;;
1471;SDS011;963;42.644;23.336;2023-05-21T01:13:26;14.73;;;10.00;;
1471;SDS011;963;42.644;23.336;2023-05-21T01:15:52;12.70;;;10.47;;
1471;SDS011;963;42.644;23.336;2023-05-21T01:18:18;11.60;;;9.90;;
1471;SDS011;963;42.644;23.336;2023-05-21T01:20:45;14.70;;;10.10;;
1471;SDS011;963;42.644;23.336;2023-05-21T01:23:16;12.07;;;10.70;;
1471;SDS011;963;42.644;23.336;2023-05-21T01:25:43;12.80;;;10.10;;
1471;SDS011;963;42.644;23.336;2023-05-21T01:28:08;13.83;;;11.03;;
1471;SDS011;963;42.644;23.336;2023-05-21T01:30:34;12.40;;;10.30;;
1471;SDS011;963;42.644;23.336;2023-05-21T01:33:02;14.07;;;10.37;;
1471;SDS011;963;42.644;23.336;2023-05-21T01:35:34;13.17;;;9.83;;
1471;SDS011;963;42.644;23.336;2023-05-21T01:38:30;11.73;;;10.20;;
1471;SDS011;963;42.644;23.336;2023-05-21T01:41:02;13.63;;;9.77;;
1471;SDS011;963;42.644;23.336;2023-05-21T01:43:33;14.40;;;10.60;;
1471;SDS011;963;42.644;23.336;2023-05-21T01:46:01;14.97;;;9.50;;
1471;SDS011;963;42.644;23.336;2023-05-21T01:48:28;11.97;;;9.90;;
1471;SDS011;963;42.644;23.336;2023-05-21T01:50:54;10.87;;;9.77;;
1471;SDS011;963;42.644;23.336;2023-05-21T01:53:24;12.80;;;10.00;;
1471;SDS011;963;42.644;23.336;2023-05-21T01:55:49;14.07;;;10.40;;
1471;SDS011;963;42.644;23.336;2023-05-21T01:58:15;13.40;;;10.00;;
1471;SDS011;963;42.644;23.336;2023-05-21T02:00:40;12.70;;;11.40;;
1471;SDS011;963;42.644;23.336;2023-05-21T02:03:06;13.60;;;11.30;;
1471;SDS011;963;42.644;23.336;2023-05-21T02:05:32;14.30;;;10.50;;
1471;SDS011;963;42.644;23.336;2023-05-21T02:07:58;11.57;;;9.57;;
1471;SDS011;963;42.644;23.336;2023-05-21T02:10:24;11.67;;;10.40;;
1471;SDS011;963;42.644;23.336;2023-05-21T02:12:50;13.70;;;10.77;;
1471;SDS011;963;42.644;23.336;2023-05-21T02:15:15;14.80;;;10.87;;
1471;SDS011;963;42.644;23.336;2023-05-21T02:17:44;16.43;;;10.30;;
1471;SDS011;963;42.644;23.336;2023-05-21T02:20:15;11.00;;;9.90;;
1471;SDS011;963;42.644;23.336;2023-05-21T02:22:42;13.17;;;10.10;;
1471;SDS011;963;42.644;23.336;2023-05-21T02:25:11;13.30;;;10.00;;
1471;SDS011;963;42.644;23.336;2023-05-21T02:27:38;11.10;;;9.90;;
1471;SDS011;963;42.644;23.336;2023-05-21T02:30:11;17.03;;;10.97;;
1471;SDS011;963;42.644;23.336;2023-05-21T02:32:38;12.10;;;9.93;;
1471;SDS011;963;42.644;23.336;2023-05-21T02:35:06;11.10;;;9.00;;
1471;SDS011;963;42.644;23.336;2023-05-21T02:37:33;14.13;;;10.60;;
1471;SDS011;963;42.644;23.336;2023-05-21T02:40:03;12.53;;;9.87;;
1471;SDS011;963;42.644;23.336;2023-05-21T02:42:32;11.67;;;9.73;;
1471;SDS011;963;42.644;23.336;2023-05-21T02:44:57;13.60;;;11.00;;
1471;SDS011;963;42.644;23.336;2023-05-21T02:47:23;11.50;;;9.37;;
1471;SDS011;963;42.644;23.336;2023-05-21T02:49:49;13.10;;;10.60;;
1471;SDS011;963;42.644;23.336;2023-05-21T02:52:16;11.37;;;10.23;;
1471;SDS011;963;42.644;23.336;2023-05-21T02:54:42;13.67;;;10.07;;
1471;SDS011;963;42.644;23.336;2023-05-21T02:57:08;15.23;;;10.00;;
1471;SDS011;963;42.644;23.336;2023-05-21T02:59:34;14.57;;;11.30;;
1471;SDS011;963;42.644;23.336;2023-05-21T03:01:59;12.07;;;10.50;;
1471;SDS011;963;42.644;23.336;2023-05-21T03:04:24;14.30;;;10.40;;
1471;SDS011;963;42.644;23.336;2023-05-21T03:06:52;15.70;;;10.70;;
1471;SDS011;963;42.644;23.336;2023-05-21T03:09:19;14.50;;;11.63;;
1471;SDS011;963;42.644;23.336;2023-05-21T03:11:45;12.20;;;10.83;;
1471;SDS011;963;42.644;23.336;2023-05-21T03:14:11;15.47;;;10.90;;
1471;SDS011;963;42.644;23.336;2023-05-21T03:16:37;14.93;;;11.90;;
1471;SDS011;963;42.644;23.336;2023-05-21T03:19:05;15.57;;;10.13;;
1471;SDS011;963;42.644;23.336;2023-05-21T03:21:32;27.13;;;11.63;;
1471;SDS011;963;42.644;23.336;2023-05-21T03:23:57;15.37;;;11.30;;
1471;SDS011;963;42.644;23.336;2023-05-21T03:26:23;13.10;;;10.13;;
1471;SDS011;963;42.644;23.336;2023-05-21T03:28:51;11.50;;;10.23;;
1471;SDS011;963;42.644;23.336;2023-05-21T03:31:17;11.13;;;9.77;;
1471;SDS011;963;42.644;23.336;2023-05-21T03:33:43;13.63;;;10.50;;
1471;SDS011;963;42.644;23.336;2023-05-21T03:36:08;13.13;;;11.20;;
1471;SDS011;963;42.644;23.336;2023-05-21T03:38:34;11.43;;;9.53;;
1471;SDS011;963;42.644;23.336;2023-05-21T03:40:59;17.67;;;10.73;;
1471;SDS011;963;42.644;23.336;2023-05-21T03:43:24;11.17;;;9.47;;
1471;SDS011;963;42.644;23.336;2023-05-21T03:45:50;14.77;;;10.00;;
1471;SDS011;963;42.644;23.336;2023-05-21T03:48:15;12.17;;;10.40;;
1471;SDS011;963;42.644;23.336;2023-05-21T03:50:42;12.33;;;10.53;;
1471;SDS011;963;42.644;23.336;2023-05-21T03:53:07;14.90;;;10.07;;
1471;SDS011;963;42.644;23.336;2023-05-21T03:55:34;15.57;;;10.50;;
1471;SDS011;963;42.644;23.336;2023-05-21T03:58:00;14.73;;;9.83;;
1471;SDS011;963;42.644;23.336;2023-05-21T04:00:25;15.13;;;10.73;;
1471;SDS011;963;42.644;23.336;2023-05-21T04:02:51;11.50;;;9.77;;
1471;SDS011;963;42.644;23.336;2023-05-21T04:05:16;12.87;;;9.70;;
1471;SDS011;963;42.644;23.336;2023-05-21T04:07:42;16.43;;;10.93;;
1471;SDS011;963;42.644;23.336;2023-05-21T04:10:10;16.43;;;11.17;;
1471;SDS011;963;42.644;23.336;2023-05-21T04:12:36;15.53;;;10.90;;
1471;SDS011;963;42.644;23.336;2023-05-21T04:15:02;15.33;;;10.73;;
1471;SDS011;963;42.644;23.336;2023-05-21T04:17:27;12.80;;;10.63;;
1471;SDS011;963;42.644;23.336;2023-05-21T04:19:53;15.33;;;12.10;;
1471;SDS011;963;42.644;23.336;2023-05-21T04:22:18;17.47;;;12.00;;
1471;SDS011;963;42.644;23.336;2023-05-21T04:24:44;15.87;;;12.40;;
1471;SDS011;963;42.644;23.336;2023-05-21T04:27:10;16.00;;;12.00;;
1471;SDS011;963;42.644;23.336;2023-05-21T04:29:37;15.00;;;12.40;;
1471;SDS011;963;42.644;23.336;2023-05-21T04:32:06;15.03;;;10.27;;
1471;SDS011;963;42.644;23.336;2023-05-21T04:34:33;12.83;;;9.60;;
1471;SDS011;963;42.644;23.336;2023-05-21T04:36:58;15.33;;;11.73;;
1471;SDS011;963;42.644;23.336;2023-05-21T04:39:26;13.27;;;11.07;;
1471;SDS011;963;42.644;23.336;2023-05-21T04:41:52;14.50;;;11.00;;
1471;SDS011;963;42.644;23.336;2023-05-21T04:44:20;12.70;;;11.03;;
1471;SDS011;963;42.644;23.336;2023-05-21T04:46:46;19.33;;;10.60;;
1471;SDS011;963;42.644;23.336;2023-05-21T04:49:12;12.60;;;9.90;;
1471;SDS011;963;42.644;23.336;2023-05-21T04:51:39;10.50;;;7.27;;
1471;SDS011;963;42.644;23.336;2023-05-21T04:54:05;11.57;;;7.13;;
1471;SDS011;963;42.644;23.336;2023-05-21T04:56:31;7.37;;;6.67;;
1471;SDS011;963;42.644;23.336;2023-05-21T04:58:56;12.00;;;6.10;;
1471;SDS011;963;42.644;23.336;2023-05-21T05:01:22;8.17;;;6.00;;
1471;SDS011;963;42.644;23.336;2023-05-21T05:03:49;9.47;;;6.03;;
1471;SDS011;963;42.644;23.336;2023-05-21T05:06:15;8.70;;;5.00;;
1471;SDS011;963;42.644;23.336;2023-05-21T05:08:41;7.93;;;5.17;;
1471;SDS011;963;42.644;23.336;2023-05-21T05:11:06;5.70;;;5.10;;
1471;SDS011;963;42.644;23.336;2023-05-21T05:13:32;10.93;;;6.03;;
1471;SDS011;963;42.644;23.336;2023-05-21T05:15:58;8.77;;;5.20;;
1471;SDS011;963;42.644;23.336;2023-05-21T05:18:24;6.10;;;4.30;;
1471;SDS011;963;42.644;23.336;2023-05-21T05:20:50;7.57;;;5.00;;
1471;SDS011;963;42.644;23.336;2023-05-21T05:23:16;9.90;;;5.53;;
1471;SDS011;963;42.644;23.336;2023-05-21T05:25:41;6.23;;;4.47;;
1471;SDS011;963;42.644;23.336;2023-05-21T05:28:06;7.70;;;5.00;;
1471;SDS011;963;42.644;23.336;2023-05-21T05:30:32;9.43;;;5.53;;
1471;SDS011;963;42.644;23.336;2023-05-21T05:32:57;7.73;;;5.53;;
1471;SDS011;963;42.644;23.336;2023-05-21T05:35:23;8.03;;;6.10;;
1471;SDS011;963;42.644;23.336;2023-05-21T05:37:48;7.20;;;5.07;;
1471;SDS011;963;42.644;23.336;2023-05-21T05:40:14;6.87;;;5.40;;
1471;SDS011;963;42.644;23.336;2023-05-21T05:42:39;9.00;;;5.47;;
1471;SDS011;963;42.644;23.336;2023-05-21T05:45:05;8.20;;;5.73;;
1471;SDS011;963;42.644;23.336;2023-05-21T05:47:31;8.47;;;4.80;;
1471;SDS011;963;42.644;23.336;2023-05-21T05:49:56;11.50;;;5.30;;
1471;SDS011;963;42.644;23.336;2023-05-21T05:52:21;9.80;;;5.80;;
1471;SDS011;963;42.644;23.336;2023-05-21T05:54:47;7.47;;;5.17;;
1471;SDS011;963;42.644;23.336;2023-05-21T05:57:12;8.90;;;5.50;;
1471;SDS011;963;42.644;23.336;2023-05-21T05:59:38;9.43;;;5.13;;
1471;SDS011;963;42.644;23.336;2023-05-21T06:02:03;8.47;;;6.10;;
1471;SDS011;963;42.644;23.336;2023-05-21T06:04:29;7.53;;;5.70;;
1471;SDS011;963;42.644;23.336;2023-05-21T06:06:57;7.70;;;5.83;;
1471;SDS011;963;42.644;23.336;2023-05-21T06:09:23;7.50;;;5.17;;
1471;SDS011;963;42.644;23.336;2023-05-21T06:11:49;10.87;;;5.43;;
1471;SDS011;963;42.644;23.336;2023-05-21T06:14:14;8.40;;;5.57;;
1471;SDS011;963;42.644;23.336;2023-05-21T06:16:40;11.53;;;5.10;;
1471;SDS011;963;42.644;23.336;2023-05-21T06:19:05;11.03;;;5.37;;
1471;SDS011;963;42.644;23.336;2023-05-21T06:21:31;7.47;;;5.77;;
1471;SDS011;963;42.644;23.336;2023-05-21T06:23:57;8.80;;;5.10;;
1471;SDS011;963;42.644;23.336;2023-05-21T06:26:22;7.90;;;5.20;;
1471;SDS011;963;42.644;23.336;2023-05-21T06:28:48;7.53;;;5.10;;
1471;SDS011;963;42.644;23.336;2023-05-21T06:31:14;6.90;;;4.20;;
1471;SDS011;963;42.644;23.336;2023-05-21T06:33:40;11.00;;;5.13;;
1471;SDS011;963;42.644;23.336;2023-05-21T06:36:05;7.13;;;4.97;;
1471;SDS011;963;42.644;23.336;2023-05-21T06:38:31;8.03;;;5.47;;
1471;SDS011;963;42.644;23.336;2023-05-21T06:40:56;10.07;;;6.13;;
1471;SDS011;963;42.644;23.336;2023-05-21T06:43:22;7.27;;;5.10;;
1471;SDS011;963;42.644;23.336;2023-05-21T06:45:48;10.30;;;5.60;;
1471;SDS011;963;42.644;23.336;2023-05-21T06:48:13;5.67;;;5.07;;
1471;SDS011;963;42.644;23.336;2023-05-21T06:50:41;7.43;;;5.20;;
1471;SDS011;963;42.644;23.336;2023-05-21T06:53:07;6.70;;;4.63;;
1471;SDS011;963;42.644;23.336;2023-05-21T06:55:33;7.87;;;5.10;;
1471;SDS011;963;42.644;23.336;2023-05-21T06:57:58;11.47;;;5.77;;
1471;SDS011;963;42.644;23.336;2023-05-21T07:00:24;8.97;;;5.53;;
1471;SDS011;963;42.644;23.336;2023-05-21T07:02:49;12.53;;;5.60;;
1471;SDS011;963;42.644;23.336;2023-05-21T07:05:15;8.27;;;5.20;;
1471;SDS011;963;42.644;23.336;2023-05-21T07:07:40;11.33;;;6.40;;
1471;SDS011;963;42.644;23.336;2023-05-21T07:10:06;10.07;;;5.80;;
1471;SDS011;963;42.644;23.336;2023-05-21T07:12:32;10.20;;;5.30;;
1471;SDS011;963;42.644;23.336;2023-05-21T07:14:58;9.43;;;5.43;;
1471;SDS011;963;42.644;23.336;2023-05-21T07:17:23;6.50;;;4.67;;
1471;SDS011;963;42.644;23.336;2023-05-21T07:19:48;7.80;;;4.83;;
1471;SDS011;963;42.644;23.336;2023-05-21T07:22:14;9.37;;;6.30;;
1471;SDS011;963;42.644;23.336;2023-05-21T07:24:39;6.73;;;5.30;;
1471;SDS011;963;42.644;23.336;2023-05-21T07:27:05;8.53;;;5.33;;
1471;SDS011;963;42.644;23.336;2023-05-21T07:29:32;9.90;;;6.00;;
1471;SDS011;963;42.644;23.336;2023-05-21T07:31:58;8.37;;;5.73;;
1471;SDS011;963;42.644;23.336;2023-05-21T07:34:23;10.23;;;5.13;;
1471;SDS011;963;42.644;23.336;2023-05-21T07:36:48;6.60;;;4.60;;
1471;SDS011;963;42.644;23.336;2023-05-21T07:39:14;6.40;;;5.10;;
1471;SDS011;963;42.644;23.336;2023-05-21T07:41:39;9.77;;;5.30;;
1471;SDS011;963;42.644;23.336;2023-05-21T07:44:05;5.43;;;4.57;;
1471;SDS011;963;42.644;23.336;2023-05-21T07:46:30;7.37;;;4.90;;
1471;SDS011;963;42.644;23.336;2023-05-21T07:48:56;7.43;;;4.70;;
1471;SDS011;963;42.644;23.336;2023-05-21T07:51:21;6.37;;;4.47;;
1471;SDS011;963;42.644;23.336;2023-05-21T07:53:47;6.67;;;4.50;;
1471;SDS011;963;42.644;23.336;2023-05-21T07:56:12;6.93;;;5.03;;
1471;SDS011;963;42.644;23.336;2023-05-21T07:58:38;6.60;;;4.90;;
1471;SDS011;963;42.644;23.336;2023-05-21T08:01:04;16.57;;;5.27;;
1471;SDS011;963;42.644;23.336;2023-05-21T08:03:30;8.00;;;5.57;;
1471;SDS011;963;42.644;23.336;2023-05-21T08:05:55;8.73;;;5.17;;
1471;SDS011;963;42.644;23.336;2023-05-21T08:08:21;5.93;;;4.50;;
1471;SDS011;963;42.644;23.336;2023-05-21T08:10:47;8.50;;;4.50;;
1471;SDS011;963;42.644;23.336;2023-05-21T08:13:16;8.13;;;4.70;;
1471;SDS011;963;42.644;23.336;2023-05-21T08:15:41;11.40;;;4.87;;
1471;SDS011;963;42.644;23.336;2023-05-21T08:18:07;13.70;;;5.33;;
1471;SDS011;963;42.644;23.336;2023-05-21T08:20:32;11.17;;;4.20;;
1471;SDS011;963;42.644;23.336;2023-05-21T08:22:58;9.27;;;4.60;;
1471;SDS011;963;42.644;23.336;2023-05-21T08:25:27;9.60;;;4.20;;
1471;SDS011;963;42.644;23.336;2023-05-21T08:27:53;7.93;;;5.13;;
1471;SDS011;963;42.644;23.336;2023-05-21T08:30:19;7.20;;;4.30;;
1471;SDS011;963;42.644;23.336;2023-05-21T08:32:45;7.97;;;4.30;;
1471;SDS011;963;42.644;23.336;2023-05-21T08:35:11;10.43;;;4.60;;
1471;SDS011;963;42.644;23.336;2023-05-21T08:37:37;8.30;;;4.50;;
1471;SDS011;963;42.644;23.336;2023-05-21T08:40:02;9.17;;;4.57;;
1471;SDS011;963;42.644;23.336;2023-05-21T08:42:38;10.30;;;4.60;;
1471;SDS011;963;42.644;23.336;2023-05-21T08:45:07;8.07;;;4.33;;
1471;SDS011;963;42.644;23.336;2023-05-21T08:47:35;5.63;;;4.23;;
1471;SDS011;963;42.644;23.336;2023-05-21T08:50:04;11.70;;;4.37;;
1471;SDS011;963;42.644;23.336;2023-05-21T08:52:33;7.40;;;4.10;;
1471;SDS011;963;42.644;23.336;2023-05-21T08:54:58;8.40;;;5.23;;
1471;SDS011;963;42.644;23.336;2023-05-21T08:57:24;7.40;;;4.33;;
1471;SDS011;963;42.644;23.336;2023-05-21T08:59:51;9.63;;;4.70;;
1471;SDS011;963;42.644;23.336;2023-05-21T09:02:18;8.07;;;4.00;;
1471;SDS011;963;42.644;23.336;2023-05-21T09:04:44;6.70;;;4.27;;
1471;SDS011;963;42.644;23.336;2023-05-21T09:07:13;4.73;;;3.63;;
1471;SDS011;963;42.644;23.336;2023-05-21T09:09:55;8.87;;;4.53;;
1471;SDS011;963;42.644;23.336;2023-05-21T09:12:25;11.03;;;4.80;;
1471;SDS011;963;42.644;23.336;2023-05-21T09:14:51;7.73;;;4.50;;
1471;SDS011;963;42.644;23.336;2023-05-21T09:17:17;11.70;;;4.83;;
1471;SDS011;963;42.644;23.336;2023-05-21T09:22:44;4.67;;;4.07;;
1471;SDS011;963;42.644;23.336;2023-05-21T09:25:20;6.50;;;4.60;;
1471;SDS011;963;42.644;23.336;2023-05-21T09:27:47;5.53;;;3.80;;
1471;SDS011;963;42.644;23.336;2023-05-21T09:30:13;8.00;;;4.30;;
1471;SDS011;963;42.644;23.336;2023-05-21T09:32:40;4.90;;;3.97;;
1471;SDS011;963;42.644;23.336;2023-05-21T09:37:35;6.80;;;3.60;;
1471;SDS011;963;42.644;23.336;2023-05-21T09:40:07;4.43;;;3.40;;
1471;SDS011;963;42.644;23.336;2023-05-21T09:42:34;8.20;;;3.53;;
1471;SDS011;963;42.644;23.336;2023-05-21T09:45:00;5.10;;;3.27;;
1471;SDS011;963;42.644;23.336;2023-05-21T09:47:25;6.53;;;3.80;;
1471;SDS011;963;42.644;23.336;2023-05-21T09:49:51;4.73;;;3.30;;
1471;SDS011;963;42.644;23.336;2023-05-21T09:52:22;6.10;;;3.90;;
1471;SDS011;963;42.644;23.336;2023-05-21T09:54:52;9.00;;;3.57;;
1471;SDS011;963;42.644;23.336;2023-05-21T09:57:24;9.80;;;3.93;;
1471;SDS011;963;42.644;23.336;2023-05-21T09:59:50;6.97;;;3.57;;
1471;SDS011;963;42.644;23.336;2023-05-21T10:02:19;3.73;;;2.93;;
1471;SDS011;963;42.644;23.336;2023-05-21T10:04:46;3.80;;;3.40;;
1471;SDS011;963;42.644;23.336;2023-05-21T10:07:14;5.77;;;3.70;;
1471;SDS011;963;42.644;23.336;2023-05-21T10:09:49;7.40;;;4.37;;
1471;SDS011;963;42.644;23.336;2023-05-21T10:12:22;4.70;;;3.67;;
1471;SDS011;963;42.644;23.336;2023-05-21T10:14:58;5.10;;;3.30;;
1471;SDS011;963;42.644;23.336;2023-05-21T10:17:34;6.37;;;3.50;;
1471;SDS011;963;42.644;23.336;2023-05-21T10:20:00;5.23;;;3.90;;
1471;SDS011;963;42.644;23.336;2023-05-21T10:22:27;7.00;;;4.10;;
1471;SDS011;963;42.644;23.336;2023-05-21T10:24:53;7.93;;;4.33;;
1471;SDS011;963;42.644;23.336;2023-05-21T10:27:19;4.90;;;4.40;;
1471;SDS011;963;42.644;23.336;2023-05-21T10:29:46;9.83;;;3.90;;
1471;SDS011;963;42.644;23.336;2023-05-21T10:32:14;6.20;;;3.70;;
1471;SDS011;963;42.644;23.336;2023-05-21T10:34:44;7.93;;;4.00;;
1471;SDS011;963;42.644;23.336;2023-05-21T10:37:11;5.77;;;3.97;;
1471;SDS011;963;42.644;23.336;2023-05-21T10:39:37;6.47;;;4.17;;
1471;SDS011;963;42.644;23.336;2023-05-21T10:42:08;6.57;;;3.73;;
1471;SDS011;963;42.644;23.336;2023-05-21T11:00:55;12.97;;;10.13;;
1471;SDS011;963;42.644;23.336;2023-05-21T11:03:21;7.33;;;4.30;;
1471;SDS011;963;42.644;23.336;2023-05-21T11:08:28;9.10;;;3.70;;
1471;SDS011;963;42.644;23.336;2023-05-21T11:10:57;16.70;;;4.60;;
1471;SDS011;963;42.644;23.336;2023-05-21T11:13:23;7.67;;;4.80;;
1471;SDS011;963;42.644;23.336;2023-05-21T11:21:03;5.30;;;4.23;;
1471;SDS011;963;42.644;23.336;2023-05-21T11:26:14;6.77;;;4.43;;
1471;SDS011;963;42.644;23.336;2023-05-21T11:28:43;7.33;;;4.33;;
1471;SDS011;963;42.644;23.336;2023-05-21T11:31:24;6.83;;;4.33;;
1471;SDS011;963;42.644;23.336;2023-05-21T11:34:07;7.17;;;3.67;;
1471;SDS011;963;42.644;23.336;2023-05-21T11:37:21;7.17;;;4.30;;
1471;SDS011;963;42.644;23.336;2023-05-21T11:39:40;10.63;;;4.33;;
1471;SDS011;963;42.644;23.336;2023-05-21T11:42:06;8.20;;;4.27;;
1471;SDS011;963;42.644;23.336;2023-05-21T11:44:41;4.80;;;4.10;;
1471;SDS011;963;42.644;23.336;2023-05-21T11:47:11;6.03;;;4.80;;
1471;SDS011;963;42.644;23.336;2023-05-21T11:49:41;9.70;;;5.20;;
1471;SDS011;963;42.644;23.336;2023-05-21T11:52:08;9.43;;;5.70;;
1471;SDS011;963;42.644;23.336;2023-05-21T11:54:44;8.00;;;5.10;;
1471;SDS011;963;42.644;23.336;2023-05-21T11:57:14;10.20;;;4.80;;
1471;SDS011;963;42.644;23.336;2023-05-21T11:59:41;8.30;;;5.40;;
1471;SDS011;963;42.644;23.336;2023-05-21T12:02:07;10.70;;;5.07;;
1471;SDS011;963;42.644;23.336;2023-05-21T12:04:33;6.30;;;4.47;;
1471;SDS011;963;42.644;23.336;2023-05-21T12:07:06;10.63;;;5.00;;
1471;SDS011;963;42.644;23.336;2023-05-21T12:09:39;8.10;;;5.23;;
1471;SDS011;963;42.644;23.336;2023-05-21T12:12:07;11.63;;;5.53;;
1471;SDS011;963;42.644;23.336;2023-05-21T12:14:35;7.03;;;4.67;;
1471;SDS011;963;42.644;23.336;2023-05-21T12:17:03;7.23;;;5.57;;
1471;SDS011;963;42.644;23.336;2023-05-21T12:19:31;7.80;;;6.87;;
1471;SDS011;963;42.644;23.336;2023-05-21T12:22:01;9.50;;;6.40;;
1471;SDS011;963;42.644;23.336;2023-05-21T12:24:27;9.23;;;5.93;;
1471;SDS011;963;42.644;23.336;2023-05-21T12:26:52;7.37;;;4.63;;
1471;SDS011;963;42.644;23.336;2023-05-21T12:29:19;7.60;;;5.53;;
1471;SDS011;963;42.644;23.336;2023-05-21T12:31:48;7.93;;;6.00;;
1471;SDS011;963;42.644;23.336;2023-05-21T12:34:14;7.63;;;5.10;;
1471;SDS011;963;42.644;23.336;2023-05-21T12:36:42;7.07;;;5.53;;
1471;SDS011;963;42.644;23.336;2023-05-21T12:39:18;10.50;;;5.70;;
1471;SDS011;963;42.644;23.336;2023-05-21T12:41:43;9.03;;;5.70;;
1471;SDS011;963;42.644;23.336;2023-05-21T12:44:10;8.37;;;5.00;;
1471;SDS011;963;42.644;23.336;2023-05-21T12:46:36;10.43;;;5.47;;
1471;SDS011;963;42.644;23.336;2023-05-21T12:49:01;14.93;;;5.33;;
1471;SDS011;963;42.644;23.336;2023-05-21T12:51:36;6.90;;;5.00;;
1471;SDS011;963;42.644;23.336;2023-05-21T12:54:03;7.80;;;5.37;;
1471;SDS011;963;42.644;23.336;2023-05-21T12:56:28;9.50;;;5.20;;
1471;SDS011;963;42.644;23.336;2023-05-21T12:59:11;9.10;;;5.03;;
1471;SDS011;963;42.644;23.336;2023-05-21T13:01:38;6.93;;;5.13;;
1471;SDS011;963;42.644;23.336;2023-05-21T13:04:04;8.53;;;5.40;;
1471;SDS011;963;42.644;23.336;2023-05-21T13:06:40;12.17;;;5.70;;
1471;SDS011;963;42.644;23.336;2023-05-21T13:09:06;8.03;;;5.63;;
1471;SDS011;963;42.644;23.336;2023-05-21T13:11:31;9.93;;;5.07;;
1471;SDS011;963;42.644;23.336;2023-05-21T13:13:57;7.40;;;4.90;;
1471;SDS011;963;42.644;23.336;2023-05-21T13:16:22;11.57;;;4.60;;
1471;SDS011;963;42.644;23.336;2023-05-21T13:18:47;5.87;;;4.67;;
1471;SDS011;963;42.644;23.336;2023-05-21T13:21:13;16.57;;;5.37;;
1471;SDS011;963;42.644;23.336;2023-05-21T13:23:38;19.50;;;6.00;;
1471;SDS011;963;42.644;23.336;2023-05-21T13:26:03;7.10;;;5.27;;
1471;SDS011;963;42.644;23.336;2023-05-21T13:28:29;8.47;;;5.63;;
1471;SDS011;963;42.644;23.336;2023-05-21T13:30:55;10.70;;;5.40;;
1471;SDS011;963;42.644;23.336;2023-05-21T13:33:20;9.83;;;5.40;;
1471;SDS011;963;42.644;23.336;2023-05-21T13:35:45;11.43;;;5.10;;
1471;SDS011;963;42.644;23.336;2023-05-21T13:38:15;8.70;;;4.23;;
1471;SDS011;963;42.644;23.336;2023-05-21T13:40:40;7.13;;;4.83;;
1471;SDS011;963;42.644;23.336;2023-05-21T13:43:06;6.90;;;5.07;;
1471;SDS011;963;42.644;23.336;2023-05-21T13:45:31;10.30;;;5.23;;
1471;SDS011;963;42.644;23.336;2023-05-21T13:47:57;9.80;;;4.60;;
1471;SDS011;963;42.644;23.336;2023-05-21T13:50:23;7.80;;;4.90;;
1471;SDS011;963;42.644;23.336;2023-05-21T13:52:49;10.83;;;4.53;;
1471;SDS011;963;42.644;23.336;2023-05-21T13:55:14;9.50;;;4.40;;
1471;SDS011;963;42.644;23.336;2023-05-21T13:57:40;8.60;;;4.43;;
1471;SDS011;963;42.644;23.336;2023-05-21T14:00:05;7.13;;;4.80;;
1471;SDS011;963;42.644;23.336;2023-05-21T14:02:33;8.13;;;4.70;;
1471;SDS011;963;42.644;23.336;2023-05-21T14:04:58;11.07;;;4.57;;
1471;SDS011;963;42.644;23.336;2023-05-21T14:07:24;16.40;;;4.70;;
1471;SDS011;963;42.644;23.336;2023-05-21T14:09:50;7.17;;;4.97;;
1471;SDS011;963;42.644;23.336;2023-05-21T14:12:16;8.30;;;4.67;;
1471;SDS011;963;42.644;23.336;2023-05-21T14:14:41;6.50;;;4.27;;
1471;SDS011;963;42.644;23.336;2023-05-21T14:17:07;11.03;;;5.30;;
1471;SDS011;963;42.644;23.336;2023-05-21T14:19:32;11.27;;;5.40;;
1471;SDS011;963;42.644;23.336;2023-05-21T14:21:57;8.87;;;5.37;;
1471;SDS011;963;42.644;23.336;2023-05-21T14:24:24;12.03;;;4.77;;
1471;SDS011;963;42.644;23.336;2023-05-21T14:26:49;8.63;;;4.60;;
1471;SDS011;963;42.644;23.336;2023-05-21T14:29:14;10.70;;;5.60;;
1471;SDS011;963;42.644;23.336;2023-05-21T14:31:40;10.40;;;5.37;;
1471;SDS011;963;42.644;23.336;2023-05-21T14:34:05;5.20;;;4.20;;
1471;SDS011;963;42.644;23.336;2023-05-21T14:36:32;15.03;;;4.77;;
1471;SDS011;963;42.644;23.336;2023-05-21T14:38:58;7.17;;;4.67;;
1471;SDS011;963;42.644;23.336;2023-05-21T14:41:24;7.13;;;4.50;;
1471;SDS011;963;42.644;23.336;2023-05-21T14:43:52;10.93;;;5.87;;
1471;SDS011;963;42.644;23.336;2023-05-21T14:46:18;9.30;;;5.70;;
1471;SDS011;963;42.644;23.336;2023-05-21T14:48:44;8.23;;;4.77;;
1471;SDS011;963;42.644;23.336;2023-05-21T14:51:12;9.57;;;4.90;;
1471;SDS011;963;42.644;23.336;2023-05-21T14:53:38;6.93;;;4.73;;
1471;SDS011;963;42.644;23.336;2023-05-21T14:56:04;7.37;;;4.90;;
1471;SDS011;963;42.644;23.336;2023-05-21T14:58:30;8.90;;;4.90;;
1471;SDS011;963;42.644;23.336;2023-05-21T15:00:56;8.90;;;5.53;;
1471;SDS011;963;42.644;23.336;2023-05-21T15:03:21;10.23;;;5.30;;
1471;SDS011;963;42.644;23.336;2023-05-21T15:05:46;10.63;;;5.00;;
1471;SDS011;963;42.644;23.336;2023-05-21T15:08:12;7.10;;;4.83;;
1471;SDS011;963;42.644;23.336;2023-05-21T15:10:37;10.53;;;5.17;;
1471;SDS011;963;42.644;23.336;2023-05-21T15:13:03;7.53;;;5.50;;
1471;SDS011;963;42.644;23.336;2023-05-21T15:15:28;8.90;;;5.33;;
1471;SDS011;963;42.644;23.336;2023-05-21T15:17:53;8.17;;;5.00;;
1471;SDS011;963;42.644;23.336;2023-05-21T15:20:20;15.50;;;5.90;;
1471;SDS011;963;42.644;23.336;2023-05-21T15:22:46;12.87;;;5.17;;
1471;SDS011;963;42.644;23.336;2023-05-21T15:25:12;12.20;;;5.30;;
1471;SDS011;963;42.644;23.336;2023-05-21T15:27:37;8.47;;;5.37;;
1471;SDS011;963;42.644;23.336;2023-05-21T15:30:03;10.63;;;6.10;;
1471;SDS011;963;42.644;23.336;2023-05-21T15:32:29;12.03;;;6.10;;
1471;SDS011;963;42.644;23.336;2023-05-21T15:34:55;7.17;;;5.60;;